createdAt,value
2022-12-11T00:02:08.337Z,59.30
2022-12-11T00:04:35.144Z,53.47
2022-12-11T00:07:01.794Z,57.53
2022-12-11T00:09:28.442Z,49.97
2022-12-11T00:11:55.169Z,52.88
2022-12-11T00:14:21.815Z,59.13
2022-12-11T00:16:49.550Z,49.97
2022-12-11T00:19:16.433Z,56.50
2022-12-11T00:21:43.113Z,62.67
2022-12-11T00:24:09.771Z,55.80
2022-12-11T00:26:36.421Z,58.05
2022-12-11T00:29:03.108Z,60.88
2022-12-11T00:31:29.883Z,56.20
2022-12-11T00:33:56.628Z,59.72
2022-12-11T00:36:27.176Z,52.15
2022-12-11T00:38:54.319Z,61.75
2022-12-11T00:41:21.541Z,68.85
2022-12-11T00:43:48.408Z,61.15
2022-12-11T00:46:15.950Z,67.30
2022-12-11T00:48:42.740Z,66.07
2022-12-11T00:51:10.456Z,66.88
2022-12-11T00:53:37.769Z,62.65
2022-12-11T00:56:16.068Z,59.83
2022-12-11T00:58:42.736Z,58.40
2022-12-11T01:01:13.563Z,63.17
2022-12-11T01:03:40.605Z,60.50
2022-12-11T01:06:07.762Z,57.72
2022-12-11T01:08:38.544Z,58.00
2022-12-11T01:11:08.753Z,63.67
2022-12-11T01:13:35.984Z,58.50
2022-12-11T01:16:11.107Z,63.47
2022-12-11T01:18:38.427Z,60.20
2022-12-11T01:21:10.256Z,60.28
2022-12-11T01:23:37.428Z,65.68
2022-12-11T01:26:14.659Z,67.40
2022-12-11T01:28:42.201Z,65.10
2022-12-11T01:31:13.900Z,70.20
2022-12-11T01:33:40.933Z,63.10
2022-12-11T01:36:13.932Z,70.53
2022-12-11T01:38:40.650Z,56.70
2022-12-11T01:41:08.188Z,57.63
2022-12-11T01:43:34.870Z,55.95
2022-12-11T01:46:03.758Z,63.40
2022-12-11T01:48:32.583Z,68.20
2022-12-11T01:51:04.218Z,71.20
2022-12-11T01:53:38.256Z,64.70
2022-12-11T01:56:08.173Z,70.80
2022-12-11T01:58:40.273Z,67.63
2022-12-11T02:01:07.795Z,74.60
2022-12-11T02:03:34.520Z,74.38
2022-12-11T02:06:03.850Z,72.80
2022-12-11T02:08:30.540Z,71.07
2022-12-11T02:11:20.142Z,71.15
2022-12-11T02:14:01.090Z,74.25
2022-12-11T02:16:46.464Z,82.97
2022-12-11T02:19:31.977Z,74.68
2022-12-11T02:22:00.077Z,74.18
2022-12-11T02:24:51.303Z,79.80
2022-12-11T02:27:40.752Z,84.65
2022-12-11T02:30:10.248Z,71.38
2022-12-11T02:32:43.544Z,76.25
2022-12-11T02:35:31.139Z,93.03
2022-12-11T02:38:21.688Z,78.43
2022-12-11T02:40:51.481Z,75.50
2022-12-11T02:43:19.043Z,81.32
2022-12-11T02:45:46.815Z,78.63
2022-12-11T02:48:16.687Z,82.25
2022-12-11T02:50:47.401Z,86.90
2022-12-11T02:53:18.187Z,83.47
2022-12-11T02:55:47.628Z,99.43
2022-12-11T02:58:28.063Z,86.93
2022-12-11T03:00:54.744Z,76.30
2022-12-11T03:03:22.609Z,83.50
2022-12-11T03:05:49.435Z,83.32
2022-12-11T03:08:17.423Z,83.18
2022-12-11T03:10:45.730Z,73.65
2022-12-11T03:13:17.344Z,90.25
2022-12-11T03:15:46.959Z,78.97
2022-12-11T03:18:36.340Z,83.05
2022-12-11T03:21:13.346Z,98.75
2022-12-11T03:23:53.953Z,79.15
2022-12-11T03:26:22.745Z,84.13
2022-12-11T03:29:04.598Z,69.93
2022-12-11T03:31:41.003Z,59.35
2022-12-11T03:34:27.399Z,68.63
2022-12-11T03:36:56.616Z,80.15
2022-12-11T03:39:32.285Z,76.22
2022-12-11T03:42:02.709Z,71.88
2022-12-11T03:44:32.119Z,81.88
2022-12-11T03:47:01.384Z,94.88
2022-12-11T03:49:32.293Z,76.00
2022-12-11T03:52:01.585Z,74.40
2022-12-11T03:54:29.093Z,55.70
2022-12-11T03:56:58.863Z,83.15
2022-12-11T03:59:25.604Z,88.88
2022-12-11T04:01:52.243Z,81.07
2022-12-11T04:04:19.048Z,75.55
2022-12-11T04:06:46.016Z,81.85
2022-12-11T04:09:12.829Z,81.15
2022-12-11T04:11:39.672Z,79.10
2022-12-11T04:14:28.421Z,88.40
2022-12-11T04:16:56.392Z,90.25
2022-12-11T04:19:43.165Z,85.75
2022-12-11T04:22:30.639Z,89.72
2022-12-11T04:24:57.287Z,84.05
2022-12-11T04:27:43.057Z,92.85
2022-12-11T04:30:13.982Z,83.25
2022-12-11T04:32:40.805Z,92.72
2022-12-11T04:35:09.545Z,74.55
2022-12-11T04:37:37.294Z,81.07
2022-12-11T04:40:09.787Z,79.78
2022-12-11T04:42:37.174Z,84.40
2022-12-11T04:45:05.269Z,80.63
2022-12-11T04:47:31.986Z,99.85
2022-12-11T04:49:58.606Z,82.10
2022-12-11T04:52:25.385Z,84.03
2022-12-11T04:54:52.079Z,83.50
2022-12-11T04:57:20.703Z,92.35
2022-12-11T04:59:48.167Z,87.65
2022-12-11T05:02:15.710Z,74.47
2022-12-11T05:04:42.406Z,79.35
2022-12-11T05:07:11.625Z,87.80
2022-12-11T05:09:38.334Z,103.68
2022-12-11T05:12:05.052Z,87.05
2022-12-11T05:14:32.602Z,88.03
2022-12-11T05:17:00.175Z,88.03
2022-12-11T05:19:27.417Z,76.45
2022-12-11T05:21:54.009Z,96.07
2022-12-11T05:24:20.737Z,92.80
2022-12-11T05:26:47.343Z,91.25
2022-12-11T05:29:13.943Z,87.78
2022-12-11T05:31:40.644Z,85.35
2022-12-11T05:34:07.343Z,86.95
2022-12-11T05:36:34.184Z,82.82
2022-12-11T05:39:03.252Z,92.43
2022-12-11T05:41:32.631Z,82.30
2022-12-11T05:43:59.951Z,80.90
2022-12-11T05:46:29.154Z,69.97
2022-12-11T05:48:58.271Z,62.03
2022-12-11T05:51:25.385Z,56.05
2022-12-11T05:53:53.282Z,62.65
2022-12-11T05:56:26.361Z,74.22
2022-12-11T05:58:53.732Z,62.92
2022-12-11T06:01:33.141Z,72.05
2022-12-11T06:04:00.325Z,75.47
2022-12-11T06:06:28.063Z,70.97
2022-12-11T06:08:56.494Z,59.80
2022-12-11T06:11:24.551Z,56.45
2022-12-11T06:13:52.283Z,71.85
2022-12-11T06:16:19.287Z,69.82
2022-12-11T06:18:46.015Z,74.32
2022-12-11T06:21:19.445Z,65.72
2022-12-11T06:23:47.530Z,69.40
2022-12-11T06:26:15.839Z,73.88
2022-12-11T06:28:42.722Z,82.10
2022-12-11T06:31:10.101Z,82.18
2022-12-11T06:33:37.428Z,98.47
2022-12-11T06:36:06.712Z,116.93
2022-12-11T06:38:33.835Z,109.95
2022-12-11T06:41:04.768Z,108.80
2022-12-11T06:43:32.198Z,77.50
2022-12-11T06:46:03.792Z,79.65
2022-12-11T06:48:31.149Z,89.45
2022-12-11T06:50:57.843Z,97.53
2022-12-11T06:53:24.566Z,69.43
2022-12-11T06:55:51.259Z,66.32
2022-12-11T06:58:17.975Z,69.00
2022-12-11T07:00:44.665Z,54.65
2022-12-11T07:03:11.753Z,70.65
2022-12-11T07:05:38.421Z,79.47
2022-12-11T07:08:05.233Z,83.57
2022-12-11T07:10:32.723Z,82.00
2022-12-11T07:12:59.378Z,82.55
2022-12-11T07:15:26.034Z,94.07
2022-12-11T07:17:52.716Z,86.00
2022-12-11T07:20:19.402Z,84.47
2022-12-11T07:22:46.764Z,85.95
2022-12-11T07:25:14.211Z,77.00
2022-12-11T07:27:41.618Z,86.13
2022-12-11T07:30:10.870Z,84.00
2022-12-11T07:32:37.605Z,74.28
2022-12-11T07:35:04.758Z,81.82
2022-12-11T07:37:31.388Z,78.85
2022-12-11T07:39:58.017Z,82.43
2022-12-11T07:42:24.623Z,75.18
2022-12-11T07:44:51.274Z,93.72
2022-12-11T07:47:17.923Z,86.82
2022-12-11T07:49:44.575Z,81.35
2022-12-11T07:52:11.239Z,81.55
2022-12-11T07:54:37.958Z,66.80
2022-12-11T07:57:06.248Z,61.53
2022-12-11T07:59:34.774Z,43.33
2022-12-11T08:02:01.426Z,48.78
2022-12-11T08:04:28.079Z,50.03
2022-12-11T08:06:54.663Z,58.63
2022-12-11T08:09:22.682Z,58.75
2022-12-11T08:11:52.623Z,63.42
2022-12-11T08:14:20.182Z,69.38
2022-12-11T08:16:47.263Z,71.50
2022-12-11T08:19:14.648Z,49.40
2022-12-11T08:21:41.996Z,50.15
2022-12-11T08:24:10.019Z,57.03
2022-12-11T08:26:36.952Z,45.92
2022-12-11T08:29:03.966Z,58.88
2022-12-11T08:31:30.815Z,52.55
2022-12-11T08:33:58.037Z,57.50
2022-12-11T08:36:25.530Z,55.22
2022-12-11T08:38:53.660Z,61.67
2022-12-11T08:41:26.766Z,64.28
2022-12-11T08:43:54.988Z,62.92
2022-12-11T08:46:28.039Z,69.32
2022-12-11T08:48:55.716Z,56.13
2022-12-11T08:51:26.030Z,58.28
2022-12-11T08:53:58.853Z,55.58
2022-12-11T08:56:26.916Z,62.15
2022-12-11T08:58:53.892Z,65.53
2022-12-11T09:01:23.342Z,62.95
2022-12-11T09:03:51.667Z,62.97
2022-12-11T09:06:20.921Z,52.78
2022-12-11T09:08:52.277Z,44.50
2022-12-11T09:11:23.528Z,47.10
2022-12-11T09:13:50.580Z,50.78
2022-12-11T09:16:19.184Z,51.72
2022-12-11T09:18:48.415Z,45.10
2022-12-11T09:21:17.548Z,52.85
2022-12-11T09:23:44.797Z,52.40
2022-12-11T09:26:14.185Z,56.17
2022-12-11T09:28:45.971Z,51.88
2022-12-11T09:31:17.068Z,44.50
2022-12-11T09:33:44.911Z,40.83
2022-12-11T09:36:12.111Z,39.22
2022-12-11T09:38:39.509Z,42.35
2022-12-11T09:41:29.942Z,37.25
2022-12-11T09:44:02.905Z,42.35
2022-12-11T09:46:34.160Z,43.75
2022-12-11T09:49:05.626Z,37.03
2022-12-11T09:51:42.268Z,52.93
2022-12-11T09:54:13.271Z,46.25
2022-12-11T09:56:45.707Z,51.63
2022-12-11T10:00:02.730Z,43.88
2022-12-11T10:02:52.818Z,39.63
2022-12-11T10:05:47.588Z,43.45
2022-12-11T10:08:17.322Z,34.60
2022-12-11T10:10:55.706Z,29.15
2022-12-11T10:13:28.245Z,30.80
2022-12-11T10:16:00.310Z,30.80
2022-12-11T10:18:29.647Z,50.65
2022-12-11T10:20:56.955Z,38.90
2022-12-11T10:23:45.821Z,42.05
2022-12-11T10:26:21.257Z,31.42
2022-12-11T10:28:48.128Z,31.95
2022-12-11T10:31:24.292Z,32.92
2022-12-11T10:33:57.246Z,31.35
2022-12-11T10:36:31.348Z,23.95
2022-12-11T10:38:58.556Z,30.23
2022-12-11T10:41:38.552Z,30.77
2022-12-11T10:44:25.225Z,33.38
2022-12-11T10:47:21.399Z,42.53
2022-12-11T10:49:59.827Z,49.75
2022-12-11T10:52:38.173Z,49.85
2022-12-11T10:55:17.407Z,47.17
2022-12-11T10:57:44.456Z,51.90
2022-12-11T11:00:41.244Z,42.25
2022-12-11T11:03:27.800Z,51.83
2022-12-11T11:06:19.443Z,41.75
2022-12-11T11:08:49.148Z,47.58
2022-12-11T11:11:25.118Z,51.45
2022-12-11T11:13:52.182Z,46.85
2022-12-11T11:16:20.955Z,42.38
2022-12-11T11:18:55.814Z,46.95
2022-12-11T11:21:25.684Z,49.45
2022-12-11T11:23:54.051Z,42.47
2022-12-11T11:26:22.868Z,40.75
2022-12-11T11:28:52.438Z,40.33
2022-12-11T11:31:21.380Z,49.25
2022-12-11T11:34:08.082Z,38.75
2022-12-11T11:36:36.501Z,36.63
2022-12-11T11:39:30.816Z,34.83
2022-12-11T11:42:06.235Z,42.25
2022-12-11T11:44:42.300Z,38.50
2022-12-11T11:47:19.737Z,36.15
2022-12-11T11:50:08.512Z,39.35
2022-12-11T11:52:45.376Z,43.58
2022-12-11T11:55:28.154Z,44.30
2022-12-11T11:58:25.385Z,36.00
2022-12-11T12:00:54.784Z,38.85
2022-12-11T12:03:27.668Z,37.25
2022-12-11T12:06:15.439Z,34.15
2022-12-11T12:08:42.629Z,30.45
2022-12-11T12:11:33.924Z,29.55
2022-12-11T12:14:00.556Z,28.70
2022-12-11T12:16:52.872Z,32.55
2022-12-11T12:19:49.999Z,26.95
2022-12-11T12:22:24.573Z,33.00
2022-12-11T12:25:17.189Z,28.67
2022-12-11T12:27:54.089Z,32.28
2022-12-11T12:30:23.332Z,31.88
2022-12-11T12:33:22.604Z,28.98
2022-12-11T12:35:55.033Z,27.95
2022-12-11T12:38:37.608Z,41.03
2022-12-11T12:41:28.435Z,35.35
2022-12-11T12:44:03.562Z,40.17
2022-12-11T12:47:03.512Z,34.58
2022-12-11T12:49:44.828Z,38.75
2022-12-11T12:52:20.445Z,36.27
2022-12-11T12:55:11.383Z,38.75
2022-12-11T12:57:39.721Z,35.72
2022-12-11T13:00:13.056Z,40.90
2022-12-11T13:02:50.863Z,32.00
2022-12-11T13:05:27.063Z,27.27
2022-12-11T13:07:57.216Z,26.38
2022-12-11T13:10:35.616Z,28.50
2022-12-11T13:13:04.605Z,27.25
2022-12-11T13:15:42.977Z,31.00
2022-12-11T13:18:31.548Z,33.13
2022-12-11T13:20:58.239Z,28.27
2022-12-11T13:23:32.151Z,33.97
2022-12-11T13:26:01.090Z,28.23
2022-12-11T13:28:38.917Z,31.10
2022-12-11T13:31:14.811Z,36.20
2022-12-11T13:33:49.228Z,34.92
2022-12-11T13:36:24.083Z,48.33
2022-12-11T13:38:58.724Z,43.00
2022-12-11T13:41:25.487Z,45.08
2022-12-11T13:43:53.526Z,45.22
2022-12-11T13:46:25.785Z,41.28
2022-12-11T13:48:57.106Z,31.48
2022-12-11T13:51:25.873Z,37.97
2022-12-11T13:54:17.855Z,35.03
2022-12-11T13:57:15.036Z,34.58
2022-12-11T13:59:46.458Z,39.08
2022-12-11T14:02:40.386Z,38.47
2022-12-11T14:05:11.004Z,36.67
2022-12-11T14:07:53.483Z,28.00
2022-12-11T14:10:25.916Z,30.20
2022-12-11T14:13:08.009Z,32.00
2022-12-11T14:15:36.463Z,27.83
2022-12-11T14:18:04.858Z,37.92
2022-12-11T14:20:33.886Z,33.30
2022-12-11T14:23:17.826Z,43.38
2022-12-11T14:25:54.450Z,32.00
2022-12-11T14:28:23.323Z,33.25
2022-12-11T14:30:51.674Z,39.05
2022-12-11T14:33:21.398Z,35.33
2022-12-11T14:35:50.416Z,36.78
2022-12-11T14:38:19.488Z,32.92
2022-12-11T14:40:51.655Z,40.88
2022-12-11T14:43:27.437Z,50.40
2022-12-11T14:45:58.149Z,42.45
2022-12-11T14:48:32.301Z,34.08
2022-12-11T14:51:03.051Z,37.92
2022-12-11T14:53:36.763Z,33.95
2022-12-11T14:56:06.931Z,30.48
2022-12-11T14:58:41.416Z,39.53
2022-12-11T15:01:23.979Z,35.25
2022-12-11T15:04:01.497Z,29.55
2022-12-11T15:06:29.381Z,25.52
2022-12-11T15:08:56.500Z,29.90
2022-12-11T15:11:25.193Z,30.60
2022-12-11T15:13:58.496Z,29.00
2022-12-11T15:16:28.294Z,27.23
2022-12-11T15:18:56.122Z,26.92
2022-12-11T15:21:37.586Z,32.92
2022-12-11T15:24:05.973Z,28.92
2022-12-11T15:26:37.306Z,30.98
2022-12-11T15:29:24.555Z,26.13
2022-12-11T15:32:09.523Z,28.48
2022-12-11T15:34:44.004Z,28.63
2022-12-11T15:37:28.791Z,26.50
2022-12-11T15:39:57.317Z,20.38
2022-12-11T15:42:31.286Z,26.63
2022-12-11T15:44:59.233Z,24.10
2022-12-11T15:47:30.732Z,27.73
2022-12-11T15:50:00.155Z,34.38
2022-12-11T15:52:27.233Z,31.55
2022-12-11T15:54:54.323Z,32.40
2022-12-11T15:57:23.716Z,25.95
2022-12-11T15:59:52.759Z,26.73
2022-12-11T16:02:19.564Z,26.65
2022-12-11T16:04:46.323Z,29.00
2022-12-11T16:07:24.451Z,30.15
2022-12-11T16:09:51.709Z,33.60
2022-12-11T16:12:18.678Z,28.48
2022-12-11T16:14:46.432Z,33.17
2022-12-11T16:17:14.933Z,30.15
2022-12-11T16:19:43.011Z,34.58
2022-12-11T16:22:10.627Z,44.05
2022-12-11T16:24:38.335Z,41.25
2022-12-11T16:27:06.157Z,37.53
2022-12-11T16:29:37.635Z,30.60
2022-12-11T16:32:06.976Z,37.42
2022-12-11T16:34:34.293Z,31.60
2022-12-11T16:37:02.119Z,28.77
2022-12-11T16:39:28.973Z,30.77
2022-12-11T16:41:55.646Z,35.70
2022-12-11T16:44:25.110Z,38.83
2022-12-11T16:46:52.727Z,47.80
2022-12-11T16:49:20.070Z,37.70
2022-12-11T16:51:46.780Z,32.22
2022-12-11T16:54:13.458Z,29.83
2022-12-11T16:56:40.160Z,29.67
2022-12-11T16:59:06.922Z,34.78
2022-12-11T17:01:34.271Z,28.25
2022-12-11T17:04:00.959Z,30.30
2022-12-11T17:06:27.894Z,26.90
2022-12-11T17:08:54.776Z,26.40
2022-12-11T17:11:23.379Z,32.60
2022-12-11T17:13:55.198Z,27.23
2022-12-11T17:16:28.952Z,40.55
2022-12-11T17:18:56.959Z,31.55
2022-12-11T17:21:24.211Z,29.10
2022-12-11T17:23:51.304Z,32.17
2022-12-11T17:26:19.084Z,32.53
2022-12-11T17:28:46.013Z,30.15
2022-12-11T17:31:18.302Z,30.63
2022-12-11T17:33:46.405Z,34.90
2022-12-11T17:36:19.297Z,38.10
2022-12-11T17:38:46.336Z,34.58
2022-12-11T17:44:04.974Z,35.70
2022-12-11T17:46:31.774Z,40.05
2022-12-11T17:49:00.025Z,40.78
2022-12-11T17:51:27.172Z,35.88
2022-12-11T17:53:58.350Z,33.03
2022-12-11T17:56:25.284Z,34.13
2022-12-11T17:58:52.055Z,27.90
2022-12-11T18:01:19.475Z,29.52
2022-12-11T18:03:46.947Z,24.65
2022-12-11T18:06:15.544Z,24.48
2022-12-11T18:08:42.832Z,29.17
2022-12-11T18:11:17.713Z,31.52
2022-12-11T18:13:45.471Z,25.10
2022-12-11T18:16:16.697Z,25.77
2022-12-11T18:18:43.878Z,23.92
2022-12-11T18:21:14.482Z,27.60
2022-12-11T18:23:41.254Z,27.83
2022-12-11T18:26:08.077Z,24.05
2022-12-11T18:28:34.825Z,24.25
2022-12-11T18:31:02.819Z,24.00
2022-12-11T18:33:30.687Z,26.23
2022-12-11T18:35:57.331Z,24.92
2022-12-11T18:38:24.030Z,21.23
2022-12-11T18:40:50.683Z,25.83
2022-12-11T18:43:17.356Z,26.50
2022-12-11T18:45:46.780Z,28.83
2022-12-11T18:48:14.781Z,21.88
2022-12-11T18:50:49.209Z,25.10
2022-12-11T18:53:17.151Z,23.20
2022-12-11T18:55:46.601Z,25.75
2022-12-11T18:58:15.284Z,23.80
2022-12-11T19:00:42.903Z,28.08
2022-12-11T19:03:11.883Z,26.27
2022-12-11T19:05:42.354Z,24.85
2022-12-11T19:08:11.782Z,39.42
2022-12-11T19:10:43.617Z,26.23
2022-12-11T19:13:10.830Z,29.20
2022-12-11T19:15:39.607Z,26.83
2022-12-11T19:18:06.888Z,27.58
2022-12-11T19:20:49.123Z,25.40
2022-12-11T19:23:17.027Z,23.50
2022-12-11T19:25:46.517Z,25.10
2022-12-11T19:28:13.614Z,31.45
2022-12-11T19:30:48.904Z,31.80
2022-12-11T19:33:16.662Z,40.72
2022-12-11T19:35:46.731Z,38.08
2022-12-11T19:38:13.678Z,35.50
2022-12-11T19:40:44.310Z,39.13
2022-12-11T19:43:11.871Z,40.13
2022-12-11T19:45:38.993Z,37.53
2022-12-11T19:48:06.223Z,30.95
2022-12-11T19:50:35.871Z,29.58
2022-12-11T19:53:03.625Z,27.95
2022-12-11T19:55:30.407Z,25.30
2022-12-11T19:57:57.149Z,25.90
2022-12-11T20:00:24.595Z,37.83
2022-12-11T20:02:51.706Z,44.92
2022-12-11T20:05:18.567Z,37.45
2022-12-11T20:07:45.376Z,49.60
2022-12-11T20:10:12.458Z,41.08
2022-12-11T20:12:39.167Z,33.15
2022-12-11T20:15:06.416Z,26.30
2022-12-11T20:17:33.349Z,37.38
2022-12-11T20:20:00.351Z,36.55
2022-12-11T20:22:27.094Z,30.48
2022-12-11T20:24:53.991Z,38.78
2022-12-11T20:27:20.805Z,40.17
2022-12-11T20:29:47.463Z,44.15
2022-12-11T20:32:14.262Z,37.65
2022-12-11T20:34:41.218Z,31.27
2022-12-11T20:37:08.295Z,33.13
2022-12-11T20:39:35.590Z,35.50
2022-12-11T20:42:05.043Z,30.50
2022-12-11T20:44:32.118Z,31.50
2022-12-11T20:46:58.822Z,23.38
2022-12-11T20:49:25.517Z,27.30
2022-12-11T20:51:52.159Z,26.02
2022-12-11T20:54:18.895Z,26.17
2022-12-11T20:56:45.587Z,27.98
2022-12-11T20:59:13.210Z,26.33
2022-12-11T21:01:40.566Z,25.73
2022-12-11T21:04:07.344Z,26.17
2022-12-11T21:06:35.936Z,26.55
2022-12-11T21:09:06.276Z,25.25
2022-12-11T21:11:33.244Z,25.33
2022-12-11T21:13:59.874Z,25.67
2022-12-11T21:16:27.589Z,30.27
2022-12-11T21:18:56.111Z,28.75
2022-12-11T21:21:22.763Z,27.13
2022-12-11T21:23:49.476Z,34.22
2022-12-11T21:26:17.091Z,29.80
2022-12-11T21:28:43.887Z,30.77
2022-12-11T21:31:14.494Z,29.23
2022-12-11T21:33:41.691Z,33.65
2022-12-11T21:36:11.590Z,26.67
2022-12-11T21:38:39.097Z,27.38
2022-12-11T21:41:10.871Z,31.60
2022-12-11T21:43:42.749Z,25.92
2022-12-11T21:46:27.570Z,39.10
2022-12-11T21:48:55.096Z,40.17
2022-12-11T21:51:31.052Z,43.10
2022-12-11T21:54:03.519Z,31.35
2022-12-11T21:56:31.679Z,26.63
2022-12-11T21:59:01.228Z,25.95
2022-12-11T22:01:32.216Z,25.83
2022-12-11T22:03:59.421Z,26.27
2022-12-11T22:06:26.102Z,37.75
2022-12-11T22:08:53.056Z,42.30
2022-12-11T22:11:22.755Z,35.40
2022-12-11T22:13:49.649Z,27.75
2022-12-11T22:16:16.513Z,23.30
2022-12-11T22:18:43.600Z,25.48
2022-12-11T22:21:10.749Z,31.17
2022-12-11T22:23:42.104Z,36.92
2022-12-11T22:26:12.366Z,29.67
2022-12-11T22:28:38.988Z,26.45
2022-12-11T22:31:09.261Z,35.65
2022-12-11T22:33:35.998Z,40.13
2022-12-11T22:36:03.417Z,35.10
2022-12-11T22:38:30.037Z,36.60
2022-12-11T22:40:56.661Z,33.47
2022-12-11T22:43:23.334Z,26.60
2022-12-11T22:45:50.072Z,25.23
2022-12-11T22:48:16.841Z,37.35
2022-12-11T22:50:43.782Z,31.17
2022-12-11T22:53:10.486Z,31.63
2022-12-11T22:55:40.174Z,28.15
2022-12-11T22:58:07.450Z,29.45
2022-12-11T23:00:34.336Z,36.75
2022-12-11T23:03:01.899Z,24.35
2022-12-11T23:05:29.016Z,24.60
2022-12-11T23:07:55.737Z,23.35
2022-12-11T23:10:22.594Z,27.25
2022-12-11T23:12:49.315Z,34.78
2022-12-11T23:15:16.030Z,44.28
2022-12-11T23:17:42.718Z,35.50
2022-12-11T23:20:10.785Z,36.25
2022-12-11T23:22:37.437Z,19.65
2022-12-11T23:25:04.400Z,21.30
2022-12-11T23:27:31.084Z,22.20
2022-12-11T23:29:57.730Z,20.67
2022-12-11T23:32:24.466Z,18.48
2022-12-11T23:34:51.154Z,20.05
2022-12-11T23:37:17.798Z,19.90
2022-12-11T23:39:44.470Z,27.15
2022-12-11T23:42:11.139Z,20.50
2022-12-11T23:44:37.792Z,22.80
2022-12-11T23:47:04.496Z,23.42
2022-12-11T23:49:31.221Z,20.33
2022-12-11T23:51:57.861Z,22.10
2022-12-11T23:54:24.659Z,19.88
2022-12-11T23:56:51.282Z,24.80
2022-12-11T23:59:17.914Z,31.55
